sensor_id;sensor_type;location;lat;lon;timestamp;P1;durP1;ratioP1;P2;durP2;ratioP2
18214;SDS011;9233;51.312;6.512;2022-09-13T00:01:28;4.00;;;1.93;;
18214;SDS011;9233;51.312;6.512;2022-09-13T00:04:15;3.13;;;2.10;;
18214;SDS011;9233;51.312;6.512;2022-09-13T00:07:02;3.70;;;2.30;;
18214;SDS011;9233;51.312;6.512;2022-09-13T00:09:48;2.63;;;2.10;;
18214;SDS011;9233;51.312;6.512;2022-09-13T00:12:35;3.60;;;1.80;;
18214;SDS011;9233;51.312;6.512;2022-09-13T00:15:21;2.67;;;1.70;;
18214;SDS011;9233;51.312;6.512;2022-09-13T00:18:09;4.23;;;1.90;;
18214;SDS011;9233;51.312;6.512;2022-09-13T00:21:02;2.20;;;2.00;;
18214;SDS011;9233;51.312;6.512;2022-09-13T00:23:51;4.00;;;1.70;;
18214;SDS011;9233;51.312;6.512;2022-09-13T00:26:39;5.10;;;1.73;;
18214;SDS011;9233;51.312;6.512;2022-09-13T00:29:26;3.47;;;1.70;;
18214;SDS011;9233;51.312;6.512;2022-09-13T00:32:12;2.30;;;1.90;;
18214;SDS011;9233;51.312;6.512;2022-09-13T00:35:00;3.97;;;1.80;;
18214;SDS011;9233;51.312;6.512;2022-09-13T00:37:47;1.87;;;1.70;;
18214;SDS011;9233;51.312;6.512;2022-09-13T00:40:36;4.17;;;2.20;;
18214;SDS011;9233;51.312;6.512;2022-09-13T00:43:39;2.67;;;1.80;;
18214;SDS011;9233;51.312;6.512;2022-09-13T00:46:30;3.40;;;1.90;;
18214;SDS011;9233;51.312;6.512;2022-09-13T00:49:20;3.17;;;1.83;;
18214;SDS011;9233;51.312;6.512;2022-09-13T00:52:10;1.80;;;1.70;;
18214;SDS011;9233;51.312;6.512;2022-09-13T00:54:59;2.70;;;1.70;;
18214;SDS011;9233;51.312;6.512;2022-09-13T00:57:49;2.00;;;1.67;;
18214;SDS011;9233;51.312;6.512;2022-09-13T01:00:36;3.97;;;1.83;;
18214;SDS011;9233;51.312;6.512;2022-09-13T01:03:24;6.00;;;2.00;;
18214;SDS011;9233;51.312;6.512;2022-09-13T01:06:13;1.60;;;1.50;;
18214;SDS011;9233;51.312;6.512;2022-09-13T01:09:02;2.50;;;1.80;;
18214;SDS011;9233;51.312;6.512;2022-09-13T01:11:50;1.97;;;1.70;;
18214;SDS011;9233;51.312;6.512;2022-09-13T01:14:39;3.23;;;1.83;;
18214;SDS011;9233;51.312;6.512;2022-09-13T01:17:27;2.17;;;1.63;;
18214;SDS011;9233;51.312;6.512;2022-09-13T01:20:14;3.70;;;2.10;;
18214;SDS011;9233;51.312;6.512;2022-09-13T01:23:22;3.70;;;2.10;;
18214;SDS011;9233;51.312;6.512;2022-09-13T01:26:32;2.67;;;1.70;;
18214;SDS011;9233;51.312;6.512;2022-09-13T01:32:59;1.50;;;1.40;;
18214;SDS011;9233;51.312;6.512;2022-09-13T01:36:00;2.03;;;1.70;;
18214;SDS011;9233;51.312;6.512;2022-09-13T01:39:05;2.97;;;1.90;;
18214;SDS011;9233;51.312;6.512;2022-09-13T01:41:58;2.07;;;1.83;;
18214;SDS011;9233;51.312;6.512;2022-09-13T01:44:58;2.00;;;1.60;;
18214;SDS011;9233;51.312;6.512;2022-09-13T01:47:52;1.87;;;1.53;;
18214;SDS011;9233;51.312;6.512;2022-09-13T01:50:43;5.40;;;1.67;;
18214;SDS011;9233;51.312;6.512;2022-09-13T01:53:36;2.30;;;1.70;;
18214;SDS011;9233;51.312;6.512;2022-09-13T01:56:27;2.90;;;1.90;;
18214;SDS011;9233;51.312;6.512;2022-09-13T01:59:18;2.40;;;1.60;;
18214;SDS011;9233;51.312;6.512;2022-09-13T02:02:08;1.60;;;1.40;;
18214;SDS011;9233;51.312;6.512;2022-09-13T02:04:59;3.80;;;1.80;;
18214;SDS011;9233;51.312;6.512;2022-09-13T02:07:51;3.83;;;1.73;;
18214;SDS011;9233;51.312;6.512;2022-09-13T02:10:41;1.50;;;1.40;;
18214;SDS011;9233;51.312;6.512;2022-09-13T02:13:32;3.10;;;1.60;;
18214;SDS011;9233;51.312;6.512;2022-09-13T02:16:24;3.43;;;1.50;;
18214;SDS011;9233;51.312;6.512;2022-09-13T02:19:14;2.87;;;1.50;;
18214;SDS011;9233;51.312;6.512;2022-09-13T02:22:05;1.63;;;1.50;;
18214;SDS011;9233;51.312;6.512;2022-09-13T02:24:54;4.17;;;1.70;;
18214;SDS011;9233;51.312;6.512;2022-09-13T02:27:44;1.67;;;1.57;;
18214;SDS011;9233;51.312;6.512;2022-09-13T02:30:32;3.10;;;1.53;;
18214;SDS011;9233;51.312;6.512;2022-09-13T02:33:25;2.50;;;1.57;;
18214;SDS011;9233;51.312;6.512;2022-09-13T02:36:15;2.00;;;1.20;;
18214;SDS011;9233;51.312;6.512;2022-09-13T02:39:07;2.40;;;1.70;;
18214;SDS011;9233;51.312;6.512;2022-09-13T02:41:59;2.47;;;1.37;;
18214;SDS011;9233;51.312;6.512;2022-09-13T02:44:51;3.07;;;1.50;;
18214;SDS011;9233;51.312;6.512;2022-09-13T02:47:41;1.80;;;1.60;;
18214;SDS011;9233;51.312;6.512;2022-09-13T02:50:36;2.37;;;1.60;;
18214;SDS011;9233;51.312;6.512;2022-09-13T02:53:32;1.90;;;1.70;;
18214;SDS011;9233;51.312;6.512;2022-09-13T02:56:25;2.97;;;1.40;;
18214;SDS011;9233;51.312;6.512;2022-09-13T02:59:16;1.67;;;1.57;;
18214;SDS011;9233;51.312;6.512;2022-09-13T03:02:04;2.63;;;1.40;;
18214;SDS011;9233;51.312;6.512;2022-09-13T03:04:52;3.50;;;1.70;;
18214;SDS011;9233;51.312;6.512;2022-09-13T03:07:39;2.07;;;1.50;;
18214;SDS011;9233;51.312;6.512;2022-09-13T03:10:26;3.37;;;1.83;;
18214;SDS011;9233;51.312;6.512;2022-09-13T03:13:33;2.90;;;1.73;;
18214;SDS011;9233;51.312;6.512;2022-09-13T03:16:53;2.53;;;1.40;;
18214;SDS011;9233;51.312;6.512;2022-09-13T03:20:02;3.03;;;1.63;;
18214;SDS011;9233;51.312;6.512;2022-09-13T03:22:57;3.13;;;1.43;;
18214;SDS011;9233;51.312;6.512;2022-09-13T03:26:07;1.47;;;1.37;;
18214;SDS011;9233;51.312;6.512;2022-09-13T03:29:12;1.57;;;1.47;;
18214;SDS011;9233;51.312;6.512;2022-09-13T03:32:11;3.57;;;1.60;;
18214;SDS011;9233;51.312;6.512;2022-09-13T03:35:05;3.00;;;1.80;;
18214;SDS011;9233;51.312;6.512;2022-09-13T03:37:56;2.03;;;1.50;;
18214;SDS011;9233;51.312;6.512;2022-09-13T03:40:45;2.90;;;1.40;;
18214;SDS011;9233;51.312;6.512;2022-09-13T03:43:35;4.60;;;1.53;;
18214;SDS011;9233;51.312;6.512;2022-09-13T03:46:26;1.87;;;1.60;;
18214;SDS011;9233;51.312;6.512;2022-09-13T03:49:15;1.50;;;1.30;;
18214;SDS011;9233;51.312;6.512;2022-09-13T03:52:03;2.87;;;1.43;;
18214;SDS011;9233;51.312;6.512;2022-09-13T03:54:50;3.47;;;1.50;;
18214;SDS011;9233;51.312;6.512;2022-09-13T03:57:37;8.27;;;2.10;;
18214;SDS011;9233;51.312;6.512;2022-09-13T04:00:24;3.30;;;1.57;;
18214;SDS011;9233;51.312;6.512;2022-09-13T04:03:12;3.10;;;1.47;;
18214;SDS011;9233;51.312;6.512;2022-09-13T04:05:59;2.00;;;1.50;;
18214;SDS011;9233;51.312;6.512;2022-09-13T04:08:45;4.53;;;1.60;;
18214;SDS011;9233;51.312;6.512;2022-09-13T04:11:32;3.23;;;1.80;;
18214;SDS011;9233;51.312;6.512;2022-09-13T04:14:18;2.40;;;1.70;;
18214;SDS011;9233;51.312;6.512;2022-09-13T04:17:06;3.10;;;1.87;;
18214;SDS011;9233;51.312;6.512;2022-09-13T04:19:54;3.23;;;1.50;;
18214;SDS011;9233;51.312;6.512;2022-09-13T04:22:40;2.93;;;1.80;;
18214;SDS011;9233;51.312;6.512;2022-09-13T04:25:27;2.77;;;1.40;;
18214;SDS011;9233;51.312;6.512;2022-09-13T04:28:15;1.90;;;1.57;;
18214;SDS011;9233;51.312;6.512;2022-09-13T04:31:01;2.43;;;1.60;;
18214;SDS011;9233;51.312;6.512;2022-09-13T04:33:48;2.83;;;1.57;;
18214;SDS011;9233;51.312;6.512;2022-09-13T04:36:36;2.43;;;1.87;;
18214;SDS011;9233;51.312;6.512;2022-09-13T04:39:23;3.50;;;2.00;;
18214;SDS011;9233;51.312;6.512;2022-09-13T04:42:09;2.10;;;1.63;;
18214;SDS011;9233;51.312;6.512;2022-09-13T04:44:56;2.50;;;1.90;;
18214;SDS011;9233;51.312;6.512;2022-09-13T04:47:43;2.50;;;1.60;;
18214;SDS011;9233;51.312;6.512;2022-09-13T04:50:29;2.17;;;1.60;;
18214;SDS011;9233;51.312;6.512;2022-09-13T04:53:17;2.37;;;1.50;;
18214;SDS011;9233;51.312;6.512;2022-09-13T04:56:04;4.67;;;1.70;;
18214;SDS011;9233;51.312;6.512;2022-09-13T04:58:52;2.57;;;1.80;;
18214;SDS011;9233;51.312;6.512;2022-09-13T05:01:39;5.60;;;1.90;;
18214;SDS011;9233;51.312;6.512;2022-09-13T05:04:26;3.63;;;1.77;;
18214;SDS011;9233;51.312;6.512;2022-09-13T05:07:12;3.33;;;1.70;;
18214;SDS011;9233;51.312;6.512;2022-09-13T05:10:00;2.20;;;1.80;;
18214;SDS011;9233;51.312;6.512;2022-09-13T05:12:47;2.33;;;1.70;;
18214;SDS011;9233;51.312;6.512;2022-09-13T05:15:33;4.37;;;1.53;;
18214;SDS011;9233;51.312;6.512;2022-09-13T05:18:20;2.90;;;1.80;;
18214;SDS011;9233;51.312;6.512;2022-09-13T05:21:06;1.97;;;1.77;;
18214;SDS011;9233;51.312;6.512;2022-09-13T05:23:54;2.20;;;1.60;;
18214;SDS011;9233;51.312;6.512;2022-09-13T05:26:42;2.80;;;1.83;;
18214;SDS011;9233;51.312;6.512;2022-09-13T05:29:29;2.23;;;1.67;;
18214;SDS011;9233;51.312;6.512;2022-09-13T05:32:15;1.63;;;1.30;;
18214;SDS011;9233;51.312;6.512;2022-09-13T05:35:02;3.33;;;1.83;;
18214;SDS011;9233;51.312;6.512;2022-09-13T05:37:49;2.87;;;1.50;;
18214;SDS011;9233;51.312;6.512;2022-09-13T05:40:35;2.70;;;1.80;;
18214;SDS011;9233;51.312;6.512;2022-09-13T05:43:23;4.80;;;1.83;;
18214;SDS011;9233;51.312;6.512;2022-09-13T05:46:12;1.77;;;1.37;;
18214;SDS011;9233;51.312;6.512;2022-09-13T05:49:00;2.17;;;1.67;;
18214;SDS011;9233;51.312;6.512;2022-09-13T05:51:46;1.73;;;1.43;;
18214;SDS011;9233;51.312;6.512;2022-09-13T05:54:33;1.87;;;1.50;;
18214;SDS011;9233;51.312;6.512;2022-09-13T05:57:21;3.37;;;1.63;;
18214;SDS011;9233;51.312;6.512;2022-09-13T06:00:09;6.37;;;1.57;;
18214;SDS011;9233;51.312;6.512;2022-09-13T06:03:00;2.97;;;1.77;;
18214;SDS011;9233;51.312;6.512;2022-09-13T06:05:47;3.77;;;1.80;;
18214;SDS011;9233;51.312;6.512;2022-09-13T06:08:34;1.53;;;1.43;;
18214;SDS011;9233;51.312;6.512;2022-09-13T06:11:21;3.53;;;1.60;;
18214;SDS011;9233;51.312;6.512;2022-09-13T06:14:08;1.93;;;1.47;;
18214;SDS011;9233;51.312;6.512;2022-09-13T06:16:56;5.40;;;2.27;;
18214;SDS011;9233;51.312;6.512;2022-09-13T06:19:43;2.63;;;1.90;;
18214;SDS011;9233;51.312;6.512;2022-09-13T06:22:29;4.13;;;1.70;;
18214;SDS011;9233;51.312;6.512;2022-09-13T06:25:19;5.60;;;1.50;;
18214;SDS011;9233;51.312;6.512;2022-09-13T06:28:06;2.37;;;1.60;;
18214;SDS011;9233;51.312;6.512;2022-09-13T06:30:58;2.40;;;1.70;;
18214;SDS011;9233;51.312;6.512;2022-09-13T06:33:47;3.87;;;1.57;;
18214;SDS011;9233;51.312;6.512;2022-09-13T06:36:34;2.53;;;1.47;;
18214;SDS011;9233;51.312;6.512;2022-09-13T06:39:20;2.20;;;1.40;;
18214;SDS011;9233;51.312;6.512;2022-09-13T06:42:07;3.07;;;1.70;;
18214;SDS011;9233;51.312;6.512;2022-09-13T06:44:58;3.60;;;1.60;;
18214;SDS011;9233;51.312;6.512;2022-09-13T06:47:44;5.13;;;1.73;;
18214;SDS011;9233;51.312;6.512;2022-09-13T06:50:32;3.70;;;1.40;;
18214;SDS011;9233;51.312;6.512;2022-09-13T06:53:19;2.17;;;1.70;;
18214;SDS011;9233;51.312;6.512;2022-09-13T06:56:06;3.67;;;1.90;;
18214;SDS011;9233;51.312;6.512;2022-09-13T06:58:55;3.30;;;1.97;;
18214;SDS011;9233;51.312;6.512;2022-09-13T07:01:43;2.07;;;1.50;;
18214;SDS011;9233;51.312;6.512;2022-09-13T07:04:30;4.90;;;1.80;;
18214;SDS011;9233;51.312;6.512;2022-09-13T07:07:18;4.03;;;1.80;;
18214;SDS011;9233;51.312;6.512;2022-09-13T07:10:05;2.40;;;1.70;;
18214;SDS011;9233;51.312;6.512;2022-09-13T07:12:52;2.93;;;1.50;;
18214;SDS011;9233;51.312;6.512;2022-09-13T07:15:39;5.93;;;1.70;;
18214;SDS011;9233;51.312;6.512;2022-09-13T07:18:25;3.70;;;1.60;;
18214;SDS011;9233;51.312;6.512;2022-09-13T07:21:12;1.53;;;1.43;;
18214;SDS011;9233;51.312;6.512;2022-09-13T07:24:02;6.37;;;1.80;;
18214;SDS011;9233;51.312;6.512;2022-09-13T07:26:49;2.57;;;1.60;;
18214;SDS011;9233;51.312;6.512;2022-09-13T07:29:36;4.77;;;1.57;;
18214;SDS011;9233;51.312;6.512;2022-09-13T07:32:23;5.80;;;1.70;;
18214;SDS011;9233;51.312;6.512;2022-09-13T07:35:09;2.87;;;1.80;;
18214;SDS011;9233;51.312;6.512;2022-09-13T07:37:56;5.57;;;1.70;;
18214;SDS011;9233;51.312;6.512;2022-09-13T07:40:44;5.70;;;1.67;;
18214;SDS011;9233;51.312;6.512;2022-09-13T07:43:38;3.43;;;2.60;;
18214;SDS011;9233;51.312;6.512;2022-09-13T07:46:26;2.60;;;2.03;;
18214;SDS011;9233;51.312;6.512;2022-09-13T07:49:16;4.80;;;1.63;;
18214;SDS011;9233;51.312;6.512;2022-09-13T07:52:03;4.20;;;1.90;;
18214;SDS011;9233;51.312;6.512;2022-09-13T07:54:50;2.93;;;1.80;;
18214;SDS011;9233;51.312;6.512;2022-09-13T07:57:38;4.13;;;2.23;;
18214;SDS011;9233;51.312;6.512;2022-09-13T08:00:24;4.50;;;2.00;;
18214;SDS011;9233;51.312;6.512;2022-09-13T08:03:11;6.27;;;2.30;;
18214;SDS011;9233;51.312;6.512;2022-09-13T08:05:58;4.77;;;1.97;;
18214;SDS011;9233;51.312;6.512;2022-09-13T08:08:45;3.23;;;1.90;;
18214;SDS011;9233;51.312;6.512;2022-09-13T08:11:32;4.03;;;1.80;;
18214;SDS011;9233;51.312;6.512;2022-09-13T08:14:21;3.20;;;2.00;;
18214;SDS011;9233;51.312;6.512;2022-09-13T08:17:08;3.83;;;2.20;;
18214;SDS011;9233;51.312;6.512;2022-09-13T08:19:55;5.43;;;2.47;;
18214;SDS011;9233;51.312;6.512;2022-09-13T08:22:41;5.27;;;2.43;;
18214;SDS011;9233;51.312;6.512;2022-09-13T08:25:28;3.57;;;2.73;;
18214;SDS011;9233;51.312;6.512;2022-09-13T08:28:16;4.23;;;2.60;;
18214;SDS011;9233;51.312;6.512;2022-09-13T08:31:07;5.00;;;2.80;;
18214;SDS011;9233;51.312;6.512;2022-09-13T08:33:55;5.13;;;3.00;;
18214;SDS011;9233;51.312;6.512;2022-09-13T08:36:42;7.20;;;3.00;;
18214;SDS011;9233;51.312;6.512;2022-09-13T08:39:28;4.87;;;2.90;;
18214;SDS011;9233;51.312;6.512;2022-09-13T08:42:18;4.57;;;2.87;;
18214;SDS011;9233;51.312;6.512;2022-09-13T08:45:09;7.73;;;2.87;;
18214;SDS011;9233;51.312;6.512;2022-09-13T08:47:58;9.13;;;3.13;;
18214;SDS011;9233;51.312;6.512;2022-09-13T08:50:47;4.67;;;3.10;;
18214;SDS011;9233;51.312;6.512;2022-09-13T08:53:36;7.70;;;3.83;;
18214;SDS011;9233;51.312;6.512;2022-09-13T08:56:31;4.67;;;3.47;;
18214;SDS011;9233;51.312;6.512;2022-09-13T09:02:39;8.57;;;4.00;;
18214;SDS011;9233;51.312;6.512;2022-09-13T09:05:38;6.23;;;4.10;;
18214;SDS011;9233;51.312;6.512;2022-09-13T09:08:29;12.50;;;6.87;;
18214;SDS011;9233;51.312;6.512;2022-09-13T09:11:20;5.87;;;4.40;;
18214;SDS011;9233;51.312;6.512;2022-09-13T09:14:14;6.67;;;3.97;;
18214;SDS011;9233;51.312;6.512;2022-09-13T09:17:04;8.17;;;4.13;;
18214;SDS011;9233;51.312;6.512;2022-09-13T09:19:53;7.03;;;4.20;;
18214;SDS011;9233;51.312;6.512;2022-09-13T09:22:54;7.73;;;4.27;;
18214;SDS011;9233;51.312;6.512;2022-09-13T09:25:40;8.93;;;4.00;;
18214;SDS011;9233;51.312;6.512;2022-09-13T09:28:27;6.87;;;4.30;;
18214;SDS011;9233;51.312;6.512;2022-09-13T09:31:16;6.93;;;4.00;;
18214;SDS011;9233;51.312;6.512;2022-09-13T09:34:08;6.27;;;4.53;;
18214;SDS011;9233;51.312;6.512;2022-09-13T09:36:59;9.37;;;4.70;;
18214;SDS011;9233;51.312;6.512;2022-09-13T09:39:52;6.00;;;4.30;;
18214;SDS011;9233;51.312;6.512;2022-09-13T09:42:40;8.83;;;4.80;;
18214;SDS011;9233;51.312;6.512;2022-09-13T09:45:29;6.40;;;4.03;;
18214;SDS011;9233;51.312;6.512;2022-09-13T09:48:18;7.10;;;4.77;;
18214;SDS011;9233;51.312;6.512;2022-09-13T09:51:07;9.53;;;4.53;;
18214;SDS011;9233;51.312;6.512;2022-09-13T09:53:57;6.83;;;4.70;;
18214;SDS011;9233;51.312;6.512;2022-09-13T09:56:52;6.83;;;3.93;;
18214;SDS011;9233;51.312;6.512;2022-09-13T09:59:39;5.93;;;3.93;;
18214;SDS011;9233;51.312;6.512;2022-09-13T10:02:25;7.77;;;3.63;;
18214;SDS011;9233;51.312;6.512;2022-09-13T10:05:12;8.17;;;3.73;;
18214;SDS011;9233;51.312;6.512;2022-09-13T10:07:59;4.90;;;3.63;;
18214;SDS011;9233;51.312;6.512;2022-09-13T10:10:51;4.83;;;3.67;;
18214;SDS011;9233;51.312;6.512;2022-09-13T10:13:39;5.53;;;3.90;;
18214;SDS011;9233;51.312;6.512;2022-09-13T10:16:43;5.23;;;3.37;;
18214;SDS011;9233;51.312;6.512;2022-09-13T10:19:29;5.03;;;3.47;;
18214;SDS011;9233;51.312;6.512;2022-09-13T10:22:17;6.97;;;4.30;;
18214;SDS011;9233;51.312;6.512;2022-09-13T10:25:12;4.40;;;3.07;;
18214;SDS011;9233;51.312;6.512;2022-09-13T10:27:59;2.57;;;2.33;;
18214;SDS011;9233;51.312;6.512;2022-09-13T10:30:51;3.23;;;2.70;;
18214;SDS011;9233;51.312;6.512;2022-09-13T10:33:39;4.03;;;2.70;;
18214;SDS011;9233;51.312;6.512;2022-09-13T10:36:27;4.73;;;2.70;;
18214;SDS011;9233;51.312;6.512;2022-09-13T10:39:16;7.10;;;3.23;;
18214;SDS011;9233;51.312;6.512;2022-09-13T10:42:05;5.23;;;3.20;;
18214;SDS011;9233;51.312;6.512;2022-09-13T10:44:53;5.83;;;3.03;;
18214;SDS011;9233;51.312;6.512;2022-09-13T10:47:44;6.27;;;2.70;;
18214;SDS011;9233;51.312;6.512;2022-09-13T10:50:32;3.10;;;2.10;;
18214;SDS011;9233;51.312;6.512;2022-09-13T10:53:29;2.70;;;2.10;;
18214;SDS011;9233;51.312;6.512;2022-09-13T10:56:20;3.70;;;2.07;;
18214;SDS011;9233;51.312;6.512;2022-09-13T10:59:19;3.23;;;1.97;;
18214;SDS011;9233;51.312;6.512;2022-09-13T11:02:15;2.77;;;1.90;;
18214;SDS011;9233;51.312;6.512;2022-09-13T11:05:16;4.37;;;2.13;;
18214;SDS011;9233;51.312;6.512;2022-09-13T11:08:20;6.37;;;2.30;;
18214;SDS011;9233;51.312;6.512;2022-09-13T11:11:18;2.87;;;2.03;;
18214;SDS011;9233;51.312;6.512;2022-09-13T11:14:12;3.47;;;1.90;;
18214;SDS011;9233;51.312;6.512;2022-09-13T11:17:06;3.93;;;2.63;;
18214;SDS011;9233;51.312;6.512;2022-09-13T11:20:12;5.53;;;2.67;;
18214;SDS011;9233;51.312;6.512;2022-09-13T11:23:10;4.20;;;2.43;;
18214;SDS011;9233;51.312;6.512;2022-09-13T11:26:11;4.30;;;2.50;;
18214;SDS011;9233;51.312;6.512;2022-09-13T11:29:12;3.00;;;2.30;;
18214;SDS011;9233;51.312;6.512;2022-09-13T11:32:07;3.20;;;2.37;;
18214;SDS011;9233;51.312;6.512;2022-09-13T11:38:15;3.37;;;2.53;;
18214;SDS011;9233;51.312;6.512;2022-09-13T11:41:16;2.77;;;2.30;;
18214;SDS011;9233;51.312;6.512;2022-09-13T11:44:18;4.33;;;2.20;;
18214;SDS011;9233;51.312;6.512;2022-09-13T11:47:14;4.83;;;2.27;;
18214;SDS011;9233;51.312;6.512;2022-09-13T11:50:30;3.77;;;2.30;;
18214;SDS011;9233;51.312;6.512;2022-09-13T11:53:31;3.63;;;2.50;;
18214;SDS011;9233;51.312;6.512;2022-09-13T11:56:37;4.70;;;2.70;;
18214;SDS011;9233;51.312;6.512;2022-09-13T11:59:29;3.60;;;2.47;;
18214;SDS011;9233;51.312;6.512;2022-09-13T12:02:23;3.57;;;2.70;;
18214;SDS011;9233;51.312;6.512;2022-09-13T12:05:13;5.13;;;2.73;;
18214;SDS011;9233;51.312;6.512;2022-09-13T12:08:03;4.33;;;2.73;;
18214;SDS011;9233;51.312;6.512;2022-09-13T12:10:52;4.20;;;2.43;;
18214;SDS011;9233;51.312;6.512;2022-09-13T12:13:42;3.30;;;2.30;;
18214;SDS011;9233;51.312;6.512;2022-09-13T12:16:31;3.20;;;2.37;;
18214;SDS011;9233;51.312;6.512;2022-09-13T12:19:19;2.63;;;1.90;;
18214;SDS011;9233;51.312;6.512;2022-09-13T12:22:08;5.17;;;2.77;;
18214;SDS011;9233;51.312;6.512;2022-09-13T12:24:58;3.67;;;1.83;;
18214;SDS011;9233;51.312;6.512;2022-09-13T12:27:51;2.80;;;2.50;;
18214;SDS011;9233;51.312;6.512;2022-09-13T12:30:44;2.70;;;2.23;;
18214;SDS011;9233;51.312;6.512;2022-09-13T12:33:32;8.07;;;2.87;;
18214;SDS011;9233;51.312;6.512;2022-09-13T12:40:00;3.60;;;2.50;;
18214;SDS011;9233;51.312;6.512;2022-09-13T12:43:00;4.53;;;2.03;;
18214;SDS011;9233;51.312;6.512;2022-09-13T12:49:27;4.03;;;3.20;;
18214;SDS011;9233;51.312;6.512;2022-09-13T12:52:33;5.77;;;3.00;;
18214;SDS011;9233;51.312;6.512;2022-09-13T12:55:37;5.47;;;3.00;;
18214;SDS011;9233;51.312;6.512;2022-09-13T12:58:53;5.53;;;2.50;;
18214;SDS011;9233;51.312;6.512;2022-09-13T13:01:48;3.63;;;2.23;;
18214;SDS011;9233;51.312;6.512;2022-09-13T13:04:36;3.90;;;2.50;;
18214;SDS011;9233;51.312;6.512;2022-09-13T13:07:22;3.80;;;2.40;;
18214;SDS011;9233;51.312;6.512;2022-09-13T13:10:20;5.60;;;2.63;;
18214;SDS011;9233;51.312;6.512;2022-09-13T13:13:12;3.93;;;2.63;;
18214;SDS011;9233;51.312;6.512;2022-09-13T13:16:03;4.83;;;2.30;;
18214;SDS011;9233;51.312;6.512;2022-09-13T13:18:53;5.13;;;2.43;;
18214;SDS011;9233;51.312;6.512;2022-09-13T13:21:40;4.63;;;3.20;;
18214;SDS011;9233;51.312;6.512;2022-09-13T13:24:44;5.33;;;2.93;;
18214;SDS011;9233;51.312;6.512;2022-09-13T13:27:34;3.10;;;2.00;;
18214;SDS011;9233;51.312;6.512;2022-09-13T13:33:50;4.20;;;2.70;;
18214;SDS011;9233;51.312;6.512;2022-09-13T13:36:42;4.07;;;2.70;;
18214;SDS011;9233;51.312;6.512;2022-09-13T13:39:31;6.47;;;3.50;;
18214;SDS011;9233;51.312;6.512;2022-09-13T13:42:23;5.30;;;2.73;;
18214;SDS011;9233;51.312;6.512;2022-09-13T13:45:19;5.30;;;3.10;;
18214;SDS011;9233;51.312;6.512;2022-09-13T13:48:10;5.20;;;3.57;;
18214;SDS011;9233;51.312;6.512;2022-09-13T13:51:18;3.50;;;2.30;;
18214;SDS011;9233;51.312;6.512;2022-09-13T13:57:20;4.60;;;3.30;;
18214;SDS011;9233;51.312;6.512;2022-09-13T14:00:10;4.43;;;3.60;;
18214;SDS011;9233;51.312;6.512;2022-09-13T14:03:06;4.80;;;3.40;;
18214;SDS011;9233;51.312;6.512;2022-09-13T14:06:01;7.20;;;3.27;;
18214;SDS011;9233;51.312;6.512;2022-09-13T14:08:55;4.80;;;2.83;;
18214;SDS011;9233;51.312;6.512;2022-09-13T14:11:48;4.43;;;3.43;;
18214;SDS011;9233;51.312;6.512;2022-09-13T14:14:43;5.47;;;3.43;;
18214;SDS011;9233;51.312;6.512;2022-09-13T14:17:57;5.90;;;3.70;;
18214;SDS011;9233;51.312;6.512;2022-09-13T14:21:02;7.70;;;3.30;;
18214;SDS011;9233;51.312;6.512;2022-09-13T14:23:50;3.93;;;3.00;;
18214;SDS011;9233;51.312;6.512;2022-09-13T14:26:57;5.80;;;3.10;;
18214;SDS011;9233;51.312;6.512;2022-09-13T14:29:46;5.10;;;4.00;;
18214;SDS011;9233;51.312;6.512;2022-09-13T14:32:41;7.70;;;4.83;;
18214;SDS011;9233;51.312;6.512;2022-09-13T14:35:31;7.43;;;5.17;;
18214;SDS011;9233;51.312;6.512;2022-09-13T14:38:20;6.50;;;4.40;;
18214;SDS011;9233;51.312;6.512;2022-09-13T14:41:12;8.83;;;4.90;;
18214;SDS011;9233;51.312;6.512;2022-09-13T14:47:11;6.40;;;4.37;;
18214;SDS011;9233;51.312;6.512;2022-09-13T14:50:02;6.67;;;4.43;;
18214;SDS011;9233;51.312;6.512;2022-09-13T14:52:53;6.77;;;4.33;;
18214;SDS011;9233;51.312;6.512;2022-09-13T14:55:41;7.23;;;4.17;;
18214;SDS011;9233;51.312;6.512;2022-09-13T14:58:31;10.83;;;5.67;;
18214;SDS011;9233;51.312;6.512;2022-09-13T15:01:25;8.93;;;5.00;;
18214;SDS011;9233;51.312;6.512;2022-09-13T15:04:15;6.40;;;4.70;;
18214;SDS011;9233;51.312;6.512;2022-09-13T15:07:06;8.63;;;4.77;;
18214;SDS011;9233;51.312;6.512;2022-09-13T15:09:56;13.33;;;6.50;;
18214;SDS011;9233;51.312;6.512;2022-09-13T15:12:48;8.93;;;5.50;;
18214;SDS011;9233;51.312;6.512;2022-09-13T15:15:37;9.80;;;6.07;;
18214;SDS011;9233;51.312;6.512;2022-09-13T15:18:28;9.90;;;6.00;;
18214;SDS011;9233;51.312;6.512;2022-09-13T15:21:15;6.27;;;4.27;;
18214;SDS011;9233;51.312;6.512;2022-09-13T15:24:02;6.60;;;4.90;;
18214;SDS011;9233;51.312;6.512;2022-09-13T15:27:00;7.53;;;4.67;;
18214;SDS011;9233;51.312;6.512;2022-09-13T15:29:49;8.70;;;5.60;;
18214;SDS011;9233;51.312;6.512;2022-09-13T15:32:39;11.37;;;6.07;;
18214;SDS011;9233;51.312;6.512;2022-09-13T15:35:28;9.03;;;5.53;;
18214;SDS011;9233;51.312;6.512;2022-09-13T15:38:17;9.03;;;5.10;;
18214;SDS011;9233;51.312;6.512;2022-09-13T15:41:11;7.73;;;5.57;;
18214;SDS011;9233;51.312;6.512;2022-09-13T15:44:00;7.00;;;5.53;;
18214;SDS011;9233;51.312;6.512;2022-09-13T15:46:50;7.87;;;5.30;;
18214;SDS011;9233;51.312;6.512;2022-09-13T15:49:38;9.43;;;5.40;;
18214;SDS011;9233;51.312;6.512;2022-09-13T15:52:25;9.37;;;5.73;;
18214;SDS011;9233;51.312;6.512;2022-09-13T15:55:11;8.67;;;6.33;;
18214;SDS011;9233;51.312;6.512;2022-09-13T15:57:58;10.43;;;6.10;;
18214;SDS011;9233;51.312;6.512;2022-09-13T16:00:46;10.50;;;5.80;;
18214;SDS011;9233;51.312;6.512;2022-09-13T16:03:32;7.93;;;5.83;;
18214;SDS011;9233;51.312;6.512;2022-09-13T16:06:19;7.73;;;6.40;;
18214;SDS011;9233;51.312;6.512;2022-09-13T16:09:06;9.67;;;5.97;;
18214;SDS011;9233;51.312;6.512;2022-09-13T16:11:56;8.70;;;5.73;;
18214;SDS011;9233;51.312;6.512;2022-09-13T16:14:43;8.27;;;5.13;;
18214;SDS011;9233;51.312;6.512;2022-09-13T16:17:31;7.53;;;5.23;;
18214;SDS011;9233;51.312;6.512;2022-09-13T16:20:18;7.63;;;5.37;;
18214;SDS011;9233;51.312;6.512;2022-09-13T16:23:05;8.87;;;6.43;;
18214;SDS011;9233;51.312;6.512;2022-09-13T16:25:52;8.10;;;5.30;;
18214;SDS011;9233;51.312;6.512;2022-09-13T16:28:40;8.87;;;5.87;;
18214;SDS011;9233;51.312;6.512;2022-09-13T16:31:27;7.30;;;5.40;;
18214;SDS011;9233;51.312;6.512;2022-09-13T16:34:14;8.67;;;5.97;;
18214;SDS011;9233;51.312;6.512;2022-09-13T16:37:01;9.90;;;6.03;;
18214;SDS011;9233;51.312;6.512;2022-09-13T16:39:48;7.37;;;5.60;;
18214;SDS011;9233;51.312;6.512;2022-09-13T16:42:34;7.87;;;4.83;;
18214;SDS011;9233;51.312;6.512;2022-09-13T16:45:21;7.23;;;4.37;;
18214;SDS011;9233;51.312;6.512;2022-09-13T16:48:08;9.70;;;4.37;;
18214;SDS011;9233;51.312;6.512;2022-09-13T16:51:01;5.77;;;4.40;;
18214;SDS011;9233;51.312;6.512;2022-09-13T16:53:48;4.80;;;3.83;;
18214;SDS011;9233;51.312;6.512;2022-09-13T16:56:36;6.20;;;4.53;;
18214;SDS011;9233;51.312;6.512;2022-09-13T16:59:23;6.07;;;4.23;;
18214;SDS011;9233;51.312;6.512;2022-09-13T17:02:09;7.53;;;3.87;;
18214;SDS011;9233;51.312;6.512;2022-09-13T17:04:56;10.17;;;5.43;;
18214;SDS011;9233;51.312;6.512;2022-09-13T17:07:44;5.90;;;4.03;;
18214;SDS011;9233;51.312;6.512;2022-09-13T17:10:31;7.43;;;5.17;;
18214;SDS011;9233;51.312;6.512;2022-09-13T17:13:17;7.50;;;5.30;;
18214;SDS011;9233;51.312;6.512;2022-09-13T17:16:05;8.80;;;5.00;;
18214;SDS011;9233;51.312;6.512;2022-09-13T17:18:53;10.73;;;6.17;;
18214;SDS011;9233;51.312;6.512;2022-09-13T17:21:41;7.97;;;5.63;;
18214;SDS011;9233;51.312;6.512;2022-09-13T17:24:30;8.20;;;5.07;;
18214;SDS011;9233;51.312;6.512;2022-09-13T17:27:16;7.13;;;4.27;;
18214;SDS011;9233;51.312;6.512;2022-09-13T17:30:03;5.63;;;4.87;;
18214;SDS011;9233;51.312;6.512;2022-09-13T17:32:50;14.10;;;10.07;;
18214;SDS011;9233;51.312;6.512;2022-09-13T17:35:37;15.27;;;10.30;;
18214;SDS011;9233;51.312;6.512;2022-09-13T17:38:24;13.83;;;8.53;;
18214;SDS011;9233;51.312;6.512;2022-09-13T17:41:12;14.13;;;8.90;;
18214;SDS011;9233;51.312;6.512;2022-09-13T17:44:00;11.63;;;6.33;;
18214;SDS011;9233;51.312;6.512;2022-09-13T17:46:47;7.27;;;4.60;;
18214;SDS011;9233;51.312;6.512;2022-09-13T17:49:34;9.10;;;4.50;;